createdAt,value
2022-12-26T00:10:51.531Z,98142.91
2022-12-26T00:13:39.953Z,98121.78
2022-12-26T00:16:24.675Z,98128.03
2022-12-26T00:18:57.832Z,98120.97
2022-12-26T00:21:32.597Z,98128.97
2022-12-26T00:38:09.513Z,98130.00
2022-12-26T00:40:49.533Z,98127.34
2022-12-26T00:43:22.812Z,98138.91
2022-12-26T00:45:56.558Z,98130.94
2022-12-26T00:48:29.896Z,98121.38
2022-12-26T00:51:03.542Z,98119.59
2022-12-26T01:04:15.616Z,98120.63
2022-12-26T01:06:48.803Z,98119.75
2022-12-26T01:09:23.796Z,98121.47
2022-12-26T01:11:56.897Z,98119.75
2022-12-26T01:14:30.534Z,98105.56
2022-12-26T01:17:03.771Z,98119.75
2022-12-26T01:29:53.513Z,98089.88
2022-12-26T01:32:33.545Z,98081.16
2022-12-26T01:35:07.772Z,98078.50
2022-12-26T01:37:41.546Z,98069.63
2022-12-26T01:40:15.100Z,98066.88
2022-12-26T01:42:48.527Z,98075.66
2022-12-26T01:56:12.527Z,98072.06
2022-12-26T01:58:54.500Z,98057.88
2022-12-26T02:01:40.689Z,98064.00
2022-12-26T02:04:24.008Z,98072.84
2022-12-26T02:07:04.550Z,98080.88
2022-12-26T02:09:38.525Z,98077.38
2022-12-26T02:12:37.440Z,98063.19
2022-12-26T02:23:10.500Z,98065.81
2022-12-26T02:26:40.504Z,98070.19
2022-12-26T02:30:04.835Z,98082.41
2022-12-26T02:33:34.567Z,98076.31
2022-12-26T02:37:02.702Z,98079.75
2022-12-26T02:50:12.500Z,98054.09
2022-12-26T02:53:10.528Z,98046.06
2022-12-26T02:55:49.588Z,98041.63
2022-12-26T02:58:37.512Z,98047.84
2022-12-26T03:01:29.776Z,98055.81
2022-12-26T03:18:00.902Z,98061.09
2022-12-26T03:20:37.935Z,98053.06
2022-12-26T03:23:22.532Z,98057.50
2022-12-26T03:26:00.950Z,98046.91
2022-12-26T03:28:41.572Z,98045.03
2022-12-26T03:31:16.605Z,98041.63
2022-12-26T03:44:25.474Z,98054.50
2022-12-26T03:47:21.574Z,98058.84
2022-12-26T03:50:04.229Z,98063.13
2022-12-26T03:52:54.592Z,98058.66
2022-12-26T03:55:36.184Z,98063.97
2022-12-26T03:58:27.504Z,98042.59
2022-12-26T04:11:50.488Z,98036.03
2022-12-26T04:14:40.355Z,98052.81
2022-12-26T04:17:32.520Z,98043.16
2022-12-26T04:20:16.157Z,98045.72
2022-12-26T04:23:05.820Z,98060.69
2022-12-26T04:36:39.504Z,98048.88
2022-12-26T04:39:19.025Z,98059.47
2022-12-26T04:42:02.546Z,98067.41
2022-12-26T04:44:38.842Z,98073.47
2022-12-26T04:47:12.508Z,98070.81
2022-12-26T04:49:46.033Z,98069.88
2022-12-26T04:52:21.527Z,98080.47
2022-12-26T05:05:31.503Z,98086.44
2022-12-26T05:08:24.635Z,98091.66
2022-12-26T05:11:04.566Z,98083.69
2022-12-26T05:13:38.388Z,98089.00
2022-12-26T05:16:13.524Z,98091.66
2022-12-26T05:30:03.555Z,98103.03
2022-12-26T05:32:36.774Z,98082.03
2022-12-26T05:35:10.548Z,98082.03
2022-12-26T05:37:43.868Z,98083.69
2022-12-26T05:40:18.507Z,98076.72
2022-12-26T05:42:51.763Z,98071.41
2022-12-26T05:59:07.557Z,98069.34
2022-12-26T06:01:40.889Z,98093.09
2022-12-26T06:04:14.511Z,98093.94
2022-12-26T06:06:47.794Z,98097.56
2022-12-26T06:09:21.463Z,98093.09
2022-12-26T06:11:54.854Z,98115.16
2022-12-26T06:24:45.456Z,98108.16
2022-12-26T06:27:26.779Z,98110.03
2022-12-26T06:30:06.807Z,98105.59
2022-12-26T06:32:46.556Z,98106.63
2022-12-26T06:35:19.856Z,98112.88
2022-12-26T06:37:53.501Z,98122.53
2022-12-26T06:51:09.493Z,98117.59
2022-12-26T06:53:44.421Z,98108.69
2022-12-26T06:56:20.497Z,98098.28
2022-12-26T06:58:54.296Z,98100.94
2022-12-26T07:01:29.546Z,98107.19
2022-12-26T07:18:06.452Z,98126.84
2022-12-26T07:20:46.482Z,98130.47
2022-12-26T07:23:19.683Z,98135.78
2022-12-26T07:25:53.484Z,98137.47
2022-12-26T07:28:26.784Z,98130.47
2022-12-26T07:31:01.462Z,98131.47
2022-12-26T07:44:14.493Z,98149.97
2022-12-26T07:46:47.773Z,98154.41
2022-12-26T07:49:21.468Z,98149.88
2022-12-26T07:51:54.760Z,98149.97
2022-12-26T07:54:28.568Z,98144.66
2022-12-26T07:57:29.786Z,98142.75
2022-12-26T08:13:09.544Z,98147.13
2022-12-26T08:15:42.764Z,98171.00
2022-12-26T08:18:16.554Z,98168.34
2022-12-26T08:20:51.101Z,98169.09
2022-12-26T08:23:24.480Z,98169.09
2022-12-26T08:26:04.999Z,98161.06
2022-12-26T08:39:04.425Z,98125.97
2022-12-26T08:41:46.559Z,98128.41
2022-12-26T08:44:28.284Z,98146.91
2022-12-26T08:47:08.467Z,98157.22
2022-12-26T08:49:41.968Z,98151.75
2022-12-26T08:52:15.526Z,98156.84
2022-12-26T09:05:27.500Z,98150.75
2022-12-26T09:08:00.702Z,98148.91
2022-12-26T09:10:34.461Z,98147.03
2022-12-26T09:13:07.723Z,98145.13
2022-12-26T09:15:41.524Z,98139.75
2022-12-26T09:18:14.806Z,98144.97
2022-12-26T09:31:09.462Z,98140.59
2022-12-26T09:33:49.480Z,98135.19
2022-12-26T09:36:26.532Z,98127.13
2022-12-26T09:39:08.162Z,98125.25
2022-12-26T09:42:06.560Z,98129.59
2022-12-26T09:45:04.482Z,98138.13
2022-12-26T09:47:56.569Z,98155.56
2022-12-26T09:57:46.482Z,98166.38
2022-12-26T10:00:24.929Z,98158.22
2022-12-26T10:03:08.462Z,98159.84
2022-12-26T10:06:08.873Z,98151.69
2022-12-26T10:09:20.503Z,98143.63
2022-12-26T10:12:14.128Z,98146.84
2022-12-26T10:25:30.371Z,98143.97
2022-12-26T10:28:24.521Z,98139.22
2022-12-26T10:31:03.705Z,98128.53
2022-12-26T10:34:00.459Z,98132.78
2022-12-26T10:36:41.691Z,98130.00
2022-12-26T10:53:05.475Z,98107.75
2022-12-26T10:55:38.916Z,98115.63
2022-12-26T10:58:27.449Z,98118.19
2022-12-26T11:01:35.809Z,98111.91
2022-12-26T11:05:09.903Z,98108.22
2022-12-26T11:07:18.653Z,98102.03
2022-12-26T11:20:36.466Z,98096.28
2022-12-26T11:26:16.947Z,98089.72
2022-12-26T11:29:13.511Z,98094.88
2022-12-26T11:31:55.900Z,98125.78
2022-12-26T11:44:56.443Z,98098.50
2022-12-26T11:47:37.441Z,98100.19
2022-12-26T11:50:16.088Z,98092.09
2022-12-26T11:53:09.433Z,98102.63
2022-12-26T11:55:42.895Z,98098.06
2022-12-26T11:58:27.495Z,98100.63
2022-12-26T12:11:52.436Z,98107.22
2022-12-26T12:14:54.377Z,98103.63
2022-12-26T12:17:44.438Z,98101.06
2022-12-26T12:20:32.663Z,98101.91
2022-12-26T12:23:44.455Z,98106.41
2022-12-26T12:26:35.942Z,98095.13
2022-12-26T12:39:50.395Z,98100.84
2022-12-26T12:42:52.577Z,98104.44
2022-12-26T12:45:31.325Z,98101.91
2022-12-26T12:48:38.435Z,98098.50
2022-12-26T12:51:27.452Z,98093.28
2022-12-26T13:04:57.399Z,98067.88
2022-12-26T13:07:47.564Z,98073.19
2022-12-26T13:10:27.804Z,98079.44
2022-12-26T13:13:19.442Z,98069.75
2022-12-26T13:20:18.443Z,98064.56
2022-12-26T13:33:30.429Z,98069.22
2022-12-26T13:36:05.952Z,98081.56
2022-12-26T13:39:20.468Z,98080.59
2022-12-26T13:42:01.154Z,98078.03
2022-12-26T13:44:42.427Z,98080.69
2022-12-26T13:47:33.367Z,98086.88
2022-12-26T14:00:51.490Z,98101.97
2022-12-26T14:03:54.487Z,98126.75
2022-12-26T14:07:01.832Z,98138.44
2022-12-26T14:09:56.453Z,98150.13
2022-12-26T14:13:02.818Z,98174.16
2022-12-26T14:26:11.408Z,98190.13
2022-12-26T14:29:06.437Z,98195.53
2022-12-26T14:32:09.317Z,98182.47
2022-12-26T14:35:11.477Z,98169.38
2022-12-26T14:37:56.348Z,98174.03
2022-12-26T14:54:51.063Z,98185.31
2022-12-26T14:57:45.020Z,98173.09
2022-12-26T15:00:36.432Z,98170.53
2022-12-26T15:03:40.778Z,98183.94
2022-12-26T15:06:57.474Z,98184.03
2022-12-26T15:21:03.513Z,98192.53
2022-12-26T15:24:34.239Z,98181.06
2022-12-26T15:28:08.341Z,98182.97
2022-12-26T15:31:11.211Z,98184.97
2022-12-26T15:33:59.455Z,98188.56
2022-12-26T15:47:27.480Z,98202.03
2022-12-26T15:50:27.596Z,98203.75
2022-12-26T15:53:27.789Z,98202.97
2022-12-26T15:56:27.436Z,98209.25
2022-12-26T16:13:04.463Z,98218.34
2022-12-26T16:15:46.340Z,98216.63
2022-12-26T16:18:28.435Z,98204.31
2022-12-26T16:21:06.441Z,98210.56
2022-12-26T16:23:50.412Z,98199.94
2022-12-26T16:26:28.684Z,98206.19
2022-12-26T16:29:12.470Z,98207.16
2022-12-26T16:38:58.375Z,98208.09
2022-12-26T16:41:39.496Z,98208.09
2022-12-26T16:44:31.191Z,98201.09
2022-12-26T16:47:17.486Z,98215.31
2022-12-26T16:49:52.523Z,98210.94
2022-12-26T16:52:46.364Z,98217.19
2022-12-26T17:05:58.389Z,98234.09
2022-12-26T17:08:31.769Z,98233.13
2022-12-26T17:11:05.402Z,98224.31
2022-12-26T17:13:40.695Z,98228.69
2022-12-26T17:16:15.456Z,98231.44
2022-12-26T17:18:50.975Z,98229.53
2022-12-26T17:32:30.372Z,98228.19
2022-12-26T17:35:18.425Z,98232.56
2022-12-26T17:37:58.622Z,98233.50
2022-12-26T17:40:42.425Z,98235.41
2022-12-26T17:43:24.867Z,98224.78
2022-12-26T17:46:06.523Z,98226.50
2022-12-26T17:48:42.431Z,98219.47
2022-12-26T18:01:30.541Z,98221.38
2022-12-26T18:04:13.407Z,98221.56
2022-12-26T18:06:46.666Z,98220.59
2022-12-26T18:09:33.471Z,98223.19
2022-12-26T18:12:06.827Z,98221.38
2022-12-26T18:14:40.413Z,98226.66
2022-12-26T18:27:52.415Z,98215.22
2022-12-26T18:30:25.692Z,98222.13
2022-12-26T18:33:00.410Z,98216.94
2022-12-26T18:35:33.700Z,98212.34
2022-12-26T18:38:07.413Z,98207.91
2022-12-26T18:54:28.367Z,98195.38
2022-12-26T18:57:09.375Z,98193.59
2022-12-26T18:59:42.602Z,98190.19
2022-12-26T19:02:24.384Z,98183.06
2022-12-26T19:04:57.690Z,98185.72
2022-12-26T19:07:32.843Z,98191.03
2022-12-26T19:20:45.421Z,98190.06
2022-12-26T19:23:18.623Z,98192.72
2022-12-26T19:25:45.404Z,98182.13
2022-12-26T19:28:25.393Z,98187.41
2022-12-26T19:31:06.858Z,98178.72
2022-12-26T19:33:47.443Z,98162.78
2022-12-26T19:47:11.415Z,98121.06
2022-12-26T19:49:46.007Z,98129.03
2022-12-26T19:52:19.429Z,98135.19
2022-12-26T19:54:52.709Z,98130.94
2022-12-26T19:57:26.411Z,98151.97
2022-12-26T19:59:59.634Z,98152.19
2022-12-26T20:13:01.398Z,98147.03
2022-12-26T20:15:41.383Z,98153.22
2022-12-26T20:18:15.196Z,98161.91
2022-12-26T20:20:48.393Z,98160.31
2022-12-26T20:23:21.722Z,98159.38
2022-12-26T20:26:04.421Z,98164.69
2022-12-26T20:28:39.967Z,98165.53
2022-12-26T20:41:28.356Z,98190.56
2022-12-26T20:44:10.393Z,98173.78
2022-12-26T20:46:45.737Z,98200.34
2022-12-26T20:49:19.380Z,98195.19
2022-12-26T20:51:52.782Z,98214.72
2022-12-26T20:54:26.409Z,98262.50
2022-12-26T21:07:40.451Z,98361.41
2022-12-26T21:10:13.846Z,98354.47
2022-12-26T21:12:49.444Z,98362.69
2022-12-26T21:15:22.843Z,98361.19
2022-12-26T21:17:56.391Z,98364.75
2022-12-26T21:34:36.350Z,98293.00
2022-12-26T21:37:16.430Z,98281.63
2022-12-26T21:39:49.684Z,98275.47
2022-12-26T21:44:54.451Z,98295.81
2022-12-26T21:47:21.254Z,98276.41
2022-12-26T21:59:59.968Z,98342.97
2022-12-26T22:02:43.559Z,98348.38
2022-12-26T22:05:24.413Z,98346.66
2022-12-26T22:08:06.445Z,98348.53
2022-12-26T22:10:44.623Z,98348.63
2022-12-26T22:13:25.979Z,98360.34
2022-12-26T22:26:47.384Z,98370.28
2022-12-26T22:29:20.625Z,98364.03
2022-12-26T22:31:54.435Z,98367.72
2022-12-26T22:34:27.587Z,98382.75
2022-12-26T22:37:01.382Z,98393.34
2022-12-26T22:39:34.721Z,98402.44
2022-12-26T22:56:02.360Z,98446.72
2022-12-26T22:58:35.611Z,98437.06
2022-12-26T23:01:09.382Z,98446.13
2022-12-26T23:03:42.801Z,98459.47
2022-12-26T23:06:29.452Z,98466.13
2022-12-26T23:09:10.091Z,98474.53
2022-12-26T23:22:09.329Z,98516.50
2022-12-26T23:24:49.410Z,98507.16
2022-12-26T23:27:23.005Z,98529.44
2022-12-26T23:30:08.661Z,98523.50
2022-12-26T23:32:44.861Z,98530.00
2022-12-26T23:49:07.364Z,98546.06
2022-12-26T23:51:42.416Z,98549.47
2022-12-26T23:54:16.425Z,98554.63
2022-12-26T23:56:49.620Z,98563.50
2022-12-26T23:59:23.408Z,98566.25
